createdAt,value
2018-06-23T00:05:05.303Z,1.38
2018-06-23T00:09:06.538Z,1.02
2018-06-23T00:11:07.510Z,0.91
2018-06-23T00:15:08.709Z,0.82
2018-06-23T00:21:09.648Z,1.19
2018-06-23T00:25:10.421Z,0.91
2018-06-23T00:31:11.428Z,1.09
2018-06-23T00:35:12.294Z,0.88
2018-06-23T00:37:13.000Z,0.96
2018-06-23T00:41:13.823Z,1.06
2018-06-23T00:47:14.669Z,0.85
2018-06-23T00:51:15.462Z,0.8
2018-06-23T00:57:16.286Z,1.03
2018-06-23T01:01:17.082Z,0.93
2018-06-23T01:03:17.856Z,0.96
2018-06-23T01:07:19.493Z,0.99
2018-06-23T01:13:20.424Z,1.03
2018-06-23T01:17:21.177Z,1.06
2018-06-23T01:23:21.975Z,1.16
2018-06-23T01:27:22.746Z,0.92
2018-06-23T01:29:23.463Z,1.16
2018-06-23T01:33:24.308Z,1.15
2018-06-23T01:39:25.066Z,1.37
2018-06-23T01:43:25.940Z,0.95
2018-06-23T01:49:26.628Z,1.18
2018-06-23T01:53:27.386Z,1.15
2018-06-23T01:55:28.117Z,1.09
2018-06-23T01:59:28.890Z,0.9
2018-06-23T02:05:29.585Z,1.3
2018-06-23T02:09:30.355Z,1.36
2018-06-23T02:15:31.194Z,1.01
2018-06-23T02:19:32.014Z,1.08
2018-06-23T02:21:32.646Z,1.3
2018-06-23T02:25:33.683Z,1.07
2018-06-23T02:31:34.414Z,1.18
2018-06-23T02:35:35.165Z,1.17
2018-06-23T02:41:35.952Z,1.42
2018-06-23T02:45:36.703Z,1.16
2018-06-23T02:47:37.427Z,1.49
2018-06-23T02:51:38.235Z,1.29
2018-06-23T02:57:38.882Z,1.65
2018-06-23T03:01:39.636Z,1.38
2018-06-23T03:07:40.340Z,1.39
2018-06-23T03:11:41.107Z,1.31
2018-06-23T03:13:41.926Z,1.51
2018-06-23T03:17:42.617Z,1.39
2018-06-23T03:23:43.452Z,1.46
2018-06-23T03:27:44.179Z,1.32
2018-06-23T03:33:44.959Z,1.56
2018-06-23T03:37:45.696Z,1.47
2018-06-23T03:39:46.380Z,1.4
2018-06-23T03:43:47.163Z,1.43
2018-06-23T03:49:47.874Z,1.61
2018-06-23T03:53:48.606Z,1.41
2018-06-23T03:59:49.405Z,1.3
2018-06-23T04:03:50.113Z,1.15
2018-06-23T04:05:50.867Z,1.58
2018-06-23T04:09:51.528Z,1.37
2018-06-23T04:15:52.228Z,1.21
2018-06-23T04:19:52.949Z,1.23
2018-06-23T04:25:53.696Z,1.27
2018-06-23T04:29:54.510Z,1.14
2018-06-23T04:31:55.110Z,1.38
2018-06-23T04:35:55.802Z,1.33
2018-06-23T04:41:56.543Z,1.28
2018-06-23T04:45:57.215Z,1.12
2018-06-23T04:51:57.985Z,1.52
2018-06-23T04:57:58.814Z,1.24
2018-06-23T05:01:59.474Z,1.31
2018-06-23T05:08:00.245Z,1.15
2018-06-23T05:12:01.011Z,1
2018-06-23T05:18:01.718Z,1.08
2018-06-23T05:24:02.451Z,1.24
2018-06-23T05:28:03.385Z,1.18
2018-06-23T05:34:04.072Z,1.41
2018-06-23T05:38:04.777Z,1.18
2018-06-23T05:44:05.695Z,1.26
2018-06-23T05:50:06.568Z,1.37
2018-06-23T05:54:07.216Z,1.16
2018-06-23T06:00:08.110Z,1.11
2018-06-23T06:04:08.853Z,1.1
2018-06-23T06:10:09.532Z,1.28
2018-06-23T06:16:10.366Z,1.43
2018-06-23T06:20:11.103Z,1.25
2018-06-23T06:26:11.729Z,1.19
2018-06-23T06:30:12.859Z,1.08
2018-06-23T06:36:13.506Z,1.11
2018-06-23T06:42:14.248Z,1.22
2018-06-23T06:46:15.002Z,1.15
2018-06-23T06:52:15.787Z,1.39
2018-06-23T06:56:16.657Z,1.4
2018-06-23T07:02:17.368Z,1.44
2018-06-23T07:08:18.105Z,1.04
2018-06-23T07:12:18.823Z,0.89
2018-06-23T07:18:19.596Z,1.37
2018-06-23T07:22:20.357Z,1.02
2018-06-23T07:24:21.286Z,1.18
2018-06-23T07:28:21.953Z,0.93
2018-06-23T07:34:22.795Z,1.13
2018-06-23T07:38:23.438Z,1.05
2018-06-23T07:44:24.226Z,1.22
2018-06-23T07:48:25.080Z,0.96
2018-06-23T07:50:25.929Z,1.34
2018-06-23T07:54:26.663Z,1.12
2018-06-23T08:00:28.007Z,1.19
2018-06-23T08:04:28.802Z,1.26
2018-06-23T08:10:29.614Z,1.2
2018-06-23T08:14:30.400Z,1.21
2018-06-23T08:16:31.018Z,1.23
2018-06-23T08:20:31.722Z,1.22
2018-06-23T08:26:32.546Z,1.41
2018-06-23T08:30:33.263Z,1.19
2018-06-23T08:36:33.952Z,1.57
2018-06-23T08:40:34.743Z,1.14
2018-06-23T08:42:35.483Z,1.16
2018-06-23T08:46:36.172Z,1.37
2018-06-23T08:52:37.083Z,1.32
2018-06-23T08:56:37.841Z,1.13
2018-06-23T09:02:38.753Z,1.26
2018-06-23T09:06:39.484Z,1.15
2018-06-23T09:08:40.185Z,1.53
2018-06-23T09:12:40.791Z,1.84
2018-06-23T09:18:41.636Z,1.55
2018-06-23T09:22:42.354Z,1.87
2018-06-23T09:28:42.999Z,1.2
2018-06-23T09:32:43.764Z,1.16
2018-06-23T09:34:44.550Z,1.44
2018-06-23T09:38:45.375Z,1.02
2018-06-23T09:44:46.300Z,1.18
2018-06-23T09:48:47.041Z,1.06
2018-06-23T09:54:48.059Z,1.42
2018-06-23T09:58:48.887Z,1.17
2018-06-23T10:00:49.602Z,1.49
2018-06-23T10:04:50.415Z,1.24
2018-06-23T10:10:51.056Z,1.39
2018-06-23T10:14:51.854Z,1.44
2018-06-23T10:20:52.553Z,1.31
2018-06-23T10:26:53.470Z,1.12
2018-06-23T10:30:54.141Z,1.26
2018-06-23T10:36:54.842Z,1.55
2018-06-23T10:40:55.533Z,1.04
2018-06-23T10:46:56.297Z,1.31
2018-06-23T10:52:57.077Z,1.21
2018-06-23T10:56:57.776Z,1.43
2018-06-23T11:02:58.482Z,1.32
2018-06-23T11:06:59.255Z,1.27
2018-06-23T11:12:59.987Z,1.41
2018-06-23T11:19:00.780Z,1.5
2018-06-23T11:23:01.564Z,1.25
2018-06-23T11:29:02.316Z,2.09
2018-06-23T11:33:03.169Z,1.26
2018-06-23T11:39:04.069Z,1.34
2018-06-23T11:45:05.040Z,1.33
2018-06-23T11:49:05.758Z,1.62
2018-06-23T11:55:06.470Z,1.29
2018-06-23T11:59:07.375Z,1.2
2018-06-23T12:05:08.188Z,1.46
2018-06-23T12:11:08.893Z,1.1
2018-06-23T12:15:09.918Z,1.07
2018-06-23T12:21:10.675Z,1.45
2018-06-23T12:25:11.409Z,1.09
2018-06-23T12:27:12.022Z,1.28
2018-06-23T12:31:12.814Z,1.1
2018-06-23T12:37:13.519Z,1.32
2018-06-23T12:41:14.239Z,1.28
2018-06-23T12:47:14.945Z,1.24
2018-06-23T12:51:15.870Z,1.09
2018-06-23T12:53:16.649Z,1.11
2018-06-23T12:57:17.399Z,1.22
2018-06-23T13:03:18.178Z,0.92
2018-06-23T13:07:18.828Z,0.93
2018-06-23T13:13:19.599Z,1.18
2018-06-23T13:17:20.226Z,1.01
2018-06-23T13:19:21.036Z,1.27
2018-06-23T13:23:21.780Z,1.09
2018-06-23T13:29:22.579Z,1.01
2018-06-23T13:33:23.321Z,0.99
2018-06-23T13:39:24.234Z,1.16
2018-06-23T13:45:30.487Z,1.03
2018-06-23T13:45:30.612Z,1.1
2018-06-23T13:49:31.393Z,1.22
2018-06-23T13:55:32.198Z,1.18
2018-06-23T13:59:32.957Z,0.93
2018-06-23T14:05:33.589Z,1.07
2018-06-23T14:09:34.444Z,1.07
2018-06-23T14:11:35.123Z,0.97
2018-06-23T14:15:35.987Z,0.79
2018-06-23T14:21:36.814Z,1.1
2018-06-23T14:25:37.573Z,1
2018-06-23T14:31:38.471Z,1.04
2018-06-23T14:35:39.129Z,0.95
2018-06-23T14:37:39.885Z,0.87
2018-06-23T14:41:40.597Z,0.98
2018-06-23T14:47:41.372Z,1.02
2018-06-23T14:51:42.116Z,0.95
2018-06-23T14:57:42.968Z,0.97
2018-06-23T15:03:43.854Z,0.99
2018-06-23T15:07:44.571Z,0.93
2018-06-23T15:13:45.276Z,1.01
2018-06-23T15:17:46.010Z,1.1
2018-06-23T15:23:46.714Z,0.85
2018-06-23T15:29:47.456Z,1.13
2018-06-23T15:33:48.219Z,1.17
2018-06-23T15:39:49.068Z,0.86
2018-06-23T15:43:49.757Z,0.99
2018-06-23T15:49:50.523Z,0.94
2018-06-23T15:55:51.288Z,0.97
2018-06-23T15:59:52.149Z,0.99
2018-06-23T16:05:52.844Z,1.04
2018-06-23T16:09:53.624Z,0.81
2018-06-23T16:15:54.396Z,0.84
2018-06-23T16:21:55.165Z,0.93
2018-06-23T16:25:55.993Z,0.91
2018-06-23T16:31:56.814Z,1.09
2018-06-23T16:35:57.797Z,1.12
2018-06-23T16:37:58.211Z,0.98
2018-06-23T16:41:58.965Z,0.96
2018-06-23T16:47:59.674Z,1.35
2018-06-23T16:52:00.456Z,1.04
2018-06-23T16:58:01.291Z,0.92
2018-06-23T17:02:01.903Z,1.11
2018-06-23T17:04:02.729Z,1.1
2018-06-23T17:08:03.374Z,1.03
2018-06-23T17:14:04.168Z,3.22
2018-06-23T17:18:04.918Z,1.93
2018-06-23T17:24:05.969Z,1.66
2018-06-23T17:28:06.696Z,1.94
2018-06-23T17:30:07.749Z,1.42
2018-06-23T17:34:08.556Z,1.63
2018-06-23T17:40:09.310Z,1.95
2018-06-23T17:44:10.127Z,1.83
2018-06-23T17:50:10.755Z,1.66
2018-06-23T17:54:11.629Z,1.64
2018-06-23T17:56:12.389Z,2.23
2018-06-23T18:00:13.631Z,2.69
2018-06-23T18:06:14.749Z,1.75
2018-06-23T18:10:15.490Z,1.54
2018-06-23T18:16:16.311Z,1.26
2018-06-23T18:20:17.160Z,1.39
2018-06-23T18:22:17.740Z,1.44
2018-06-23T18:26:18.463Z,1.07
2018-06-23T18:32:19.248Z,1.47
2018-06-23T18:36:20.004Z,1.22
2018-06-23T18:42:20.796Z,1.02
2018-06-23T18:46:21.563Z,1.25
2018-06-23T18:48:22.307Z,1.3
2018-06-23T18:52:22.918Z,1.1
2018-06-23T18:58:23.676Z,1.29
2018-06-23T19:02:24.520Z,0.96
2018-06-23T19:08:25.343Z,1.36
2018-06-23T19:14:26.097Z,1.37
2018-06-23T19:18:26.884Z,1.13
2018-06-23T19:24:27.612Z,1.42
2018-06-23T19:28:28.509Z,1.43
2018-06-23T19:34:29.387Z,1.38
2018-06-23T19:40:30.279Z,1.44
2018-06-23T19:44:31.004Z,1.24
2018-06-23T19:50:31.854Z,1.23
2018-06-23T19:54:32.724Z,1.21
2018-06-23T20:00:33.493Z,1.08
2018-06-23T20:06:34.256Z,1.38
2018-06-23T20:10:34.966Z,1.19
2018-06-23T20:16:35.857Z,1.44
2018-06-23T20:20:36.642Z,1.15
2018-06-23T20:26:37.463Z,1.44
2018-06-23T20:32:38.199Z,1.47
2018-06-23T20:36:39.208Z,1.17
2018-06-23T20:42:39.947Z,1.54
2018-06-23T20:46:41.031Z,1.4
2018-06-23T20:52:41.942Z,1.26
2018-06-23T20:58:42.717Z,1.66
2018-06-23T21:02:43.475Z,1.16
2018-06-23T21:08:45.331Z,1.46
2018-06-23T21:12:46.250Z,1.36
2018-06-23T21:18:46.969Z,1.39
2018-06-23T21:24:47.797Z,1.5
2018-06-23T21:28:48.537Z,1.12
2018-06-23T21:34:49.439Z,1.44
2018-06-23T21:38:50.288Z,1.18
2018-06-23T21:40:51.022Z,1.64
2018-06-23T21:44:51.954Z,1.25
2018-06-23T21:50:52.579Z,1.7
2018-06-23T21:54:53.285Z,1.56
2018-06-23T22:00:54.152Z,1.26
2018-06-23T22:04:55.170Z,1.32
2018-06-23T22:06:55.930Z,1.28
2018-06-23T22:10:56.734Z,1.25
2018-06-23T22:16:57.553Z,1.46
2018-06-23T22:20:58.486Z,1.23
2018-06-23T22:26:59.431Z,1.28
2018-06-23T22:31:00.385Z,1.4
2018-06-23T22:33:01.133Z,1.11
2018-06-23T22:37:02.013Z,1.34
2018-06-23T22:43:02.746Z,2.1
2018-06-23T22:47:03.510Z,1.73
2018-06-23T22:53:04.314Z,1.93
2018-06-23T22:57:05.039Z,1.74
2018-06-23T22:59:05.736Z,2.42
2018-06-23T23:03:06.651Z,1.93
2018-06-23T23:09:07.305Z,3.36
2018-06-23T23:13:08.166Z,2.86
2018-06-23T23:19:08.871Z,3.21
2018-06-23T23:23:10.005Z,3.25
2018-06-23T23:25:10.706Z,2.91
2018-06-23T23:29:11.491Z,2.82
2018-06-23T23:35:12.197Z,2.61
2018-06-23T23:39:12.965Z,2.54
2018-06-23T23:45:14.110Z,2.18
2018-06-23T23:49:14.894Z,1.61
2018-06-23T23:51:15.716Z,1.85
2018-06-23T23:55:16.419Z,1.79
